sensor_id;sensor_type;location;lat;lon;timestamp;pressure;altitude;pressure_sealevel;temperature
13304;BMP280;6720;51.958;4.540;2023-09-12T00:01:06;101217.63;;;23.20
13304;BMP280;6720;51.958;4.540;2023-09-12T00:03:33;101215.34;;;23.28
13304;BMP280;6720;51.958;4.540;2023-09-12T00:06:00;101216.22;;;23.28
13304;BMP280;6720;51.958;4.540;2023-09-12T00:08:26;101220.91;;;23.25
13304;BMP280;6720;51.958;4.540;2023-09-12T00:11:18;101218.59;;;23.19
13304;BMP280;6720;51.958;4.540;2023-09-12T00:13:44;101212.28;;;23.20
13304;BMP280;6720;51.958;4.540;2023-09-12T00:16:10;101205.50;;;23.14
13304;BMP280;6720;51.958;4.540;2023-09-12T00:18:39;101202.75;;;23.16
13304;BMP280;6720;51.958;4.540;2023-09-12T00:21:04;101204.75;;;23.12
13304;BMP280;6720;51.958;4.540;2023-09-12T00:23:30;101204.06;;;23.09
13304;BMP280;6720;51.958;4.540;2023-09-12T00:25:56;101192.81;;;23.18
13304;BMP280;6720;51.958;4.540;2023-09-12T00:28:22;101193.66;;;23.18
13304;BMP280;6720;51.958;4.540;2023-09-12T00:30:47;101199.31;;;23.14
13304;BMP280;6720;51.958;4.540;2023-09-12T00:33:13;101193.78;;;23.17
13304;BMP280;6720;51.958;4.540;2023-09-12T00:35:38;101188.53;;;23.15
13304;BMP280;6720;51.958;4.540;2023-09-12T00:38:04;101189.03;;;23.22
13304;BMP280;6720;51.958;4.540;2023-09-12T00:40:29;101197.06;;;23.22
13304;BMP280;6720;51.958;4.540;2023-09-12T00:42:55;101194.38;;;23.22
13304;BMP280;6720;51.958;4.540;2023-09-12T00:45:21;101188.25;;;22.92
13304;BMP280;6720;51.958;4.540;2023-09-12T00:47:47;101187.47;;;22.90
13304;BMP280;6720;51.958;4.540;2023-09-12T00:50:14;101193.13;;;22.71
13304;BMP280;6720;51.958;4.540;2023-09-12T00:52:41;101196.44;;;22.75
13304;BMP280;6720;51.958;4.540;2023-09-12T00:55:08;101194.81;;;22.72
13304;BMP280;6720;51.958;4.540;2023-09-12T00:57:34;101195.00;;;22.55
13304;BMP280;6720;51.958;4.540;2023-09-12T01:00:02;101193.13;;;22.71
13304;BMP280;6720;51.958;4.540;2023-09-12T01:02:37;101192.84;;;22.76
13304;BMP280;6720;51.958;4.540;2023-09-12T01:05:02;101194.72;;;22.74
13304;BMP280;6720;51.958;4.540;2023-09-12T01:07:28;101188.25;;;22.78
13304;BMP280;6720;51.958;4.540;2023-09-12T01:12:18;101177.84;;;22.87
13304;BMP280;6720;51.958;4.540;2023-09-12T01:14:44;101182.53;;;22.84
13304;BMP280;6720;51.958;4.540;2023-09-12T01:17:09;101175.69;;;22.80
13304;BMP280;6720;51.958;4.540;2023-09-12T01:19:35;101171.78;;;22.85
13304;BMP280;6720;51.958;4.540;2023-09-12T01:22:26;101175.09;;;22.89
13304;BMP280;6720;51.958;4.540;2023-09-12T01:25:19;101179.69;;;22.73
13304;BMP280;6720;51.958;4.540;2023-09-12T01:27:51;101175.84;;;22.77
13304;BMP280;6720;51.958;4.540;2023-09-12T01:30:18;101177.84;;;22.87
13304;BMP280;6720;51.958;4.540;2023-09-12T01:32:45;101176.25;;;22.99
13304;BMP280;6720;51.958;4.540;2023-09-12T01:35:12;101176.53;;;22.94
13304;BMP280;6720;51.958;4.540;2023-09-12T01:37:38;101169.56;;;22.92
13304;BMP280;6720;51.958;4.540;2023-09-12T01:40:04;101173.47;;;23.00
13304;BMP280;6720;51.958;4.540;2023-09-12T01:42:42;101171.09;;;22.96
13304;BMP280;6720;51.958;4.540;2023-09-12T01:45:14;101174.13;;;23.04
13304;BMP280;6720;51.958;4.540;2023-09-12T01:47:41;101168.97;;;23.01
13304;BMP280;6720;51.958;4.540;2023-09-12T01:50:33;101166.31;;;23.01
13304;BMP280;6720;51.958;4.540;2023-09-12T01:53:32;101166.50;;;22.98
13304;BMP280;6720;51.958;4.540;2023-09-12T01:56:23;101158.69;;;22.95
13304;BMP280;6720;51.958;4.540;2023-09-12T01:58:49;101165.09;;;22.92
13304;BMP280;6720;51.958;4.540;2023-09-12T02:01:15;101166.72;;;22.95
13304;BMP280;6720;51.958;4.540;2023-09-12T02:03:40;101169.38;;;22.95
13304;BMP280;6720;51.958;4.540;2023-09-12T02:06:06;101156.97;;;22.94
13304;BMP280;6720;51.958;4.540;2023-09-12T02:08:31;101162.31;;;22.94
13304;BMP280;6720;51.958;4.540;2023-09-12T02:10:56;101167.84;;;22.91
13304;BMP280;6720;51.958;4.540;2023-09-12T02:13:22;101167.09;;;22.61
13304;BMP280;6720;51.958;4.540;2023-09-12T02:15:47;101152.56;;;22.79
13304;BMP280;6720;51.958;4.540;2023-09-12T02:18:13;101160.72;;;22.77
13304;BMP280;6720;51.958;4.540;2023-09-12T02:20:40;101158.97;;;22.76
13304;BMP280;6720;51.958;4.540;2023-09-12T02:23:06;101169.28;;;22.68
13304;BMP280;6720;51.958;4.540;2023-09-12T02:25:32;101165.94;;;22.65
13304;BMP280;6720;51.958;4.540;2023-09-12T02:27:57;101170.13;;;22.55
13304;BMP280;6720;51.958;4.540;2023-09-12T02:30:23;101165.13;;;22.49
13304;BMP280;6720;51.958;4.540;2023-09-12T02:32:48;101168.00;;;22.60
13304;BMP280;6720;51.958;4.540;2023-09-12T02:35:14;101175.63;;;22.52
13304;BMP280;6720;51.958;4.540;2023-09-12T02:37:39;101180.47;;;22.45
13304;BMP280;6720;51.958;4.540;2023-09-12T02:40:05;101171.00;;;22.55
13304;BMP280;6720;51.958;4.540;2023-09-12T02:42:32;101168.97;;;22.59
13304;BMP280;6720;51.958;4.540;2023-09-12T02:44:57;101168.00;;;22.60
13304;BMP280;6720;51.958;4.540;2023-09-12T02:47:23;101169.34;;;22.67
13304;BMP280;6720;51.958;4.540;2023-09-12T02:49:48;101169.19;;;22.70
13304;BMP280;6720;51.958;4.540;2023-09-12T02:52:13;101164.03;;;22.67
13304;BMP280;6720;51.958;4.540;2023-09-12T02:54:39;101164.81;;;22.69
13304;BMP280;6720;51.958;4.540;2023-09-12T02:57:05;101159.28;;;22.72
13304;BMP280;6720;51.958;4.540;2023-09-12T02:59:31;101145.25;;;22.68
13304;BMP280;6720;51.958;4.540;2023-09-12T03:01:56;101147.63;;;22.73
13304;BMP280;6720;51.958;4.540;2023-09-12T03:04:24;101151.06;;;22.75
13304;BMP280;6720;51.958;4.540;2023-09-12T03:06:50;101147.81;;;22.70
13304;BMP280;6720;51.958;4.540;2023-09-12T03:09:15;101149.34;;;22.74
13304;BMP280;6720;51.958;4.540;2023-09-12T03:11:42;101148.19;;;22.78
13304;BMP280;6720;51.958;4.540;2023-09-12T03:14:07;101138.47;;;22.77
13304;BMP280;6720;51.958;4.540;2023-09-12T03:16:33;101137.25;;;22.82
13304;BMP280;6720;51.958;4.540;2023-09-12T03:18:58;101147.06;;;22.82
13304;BMP280;6720;51.958;4.540;2023-09-12T03:21:26;101148.47;;;22.87
13304;BMP280;6720;51.958;4.540;2023-09-12T03:23:51;101146.09;;;22.97
13304;BMP280;6720;51.958;4.540;2023-09-12T03:26:17;101142.28;;;23.01
13304;BMP280;6720;51.958;4.540;2023-09-12T03:28:42;101142.00;;;22.91
13304;BMP280;6720;51.958;4.540;2023-09-12T03:31:13;101134.75;;;22.93
13304;BMP280;6720;51.958;4.540;2023-09-12T03:33:40;101146.09;;;22.97
13304;BMP280;6720;51.958;4.540;2023-09-12T03:36:07;101142.88;;;22.92
13304;BMP280;6720;51.958;4.540;2023-09-12T03:38:33;101144.56;;;22.93
13304;BMP280;6720;51.958;4.540;2023-09-12T03:40:59;101144.00;;;22.74
13304;BMP280;6720;51.958;4.540;2023-09-12T03:43:25;101150.31;;;22.87
13304;BMP280;6720;51.958;4.540;2023-09-12T03:45:52;101145.63;;;22.90
13304;BMP280;6720;51.958;4.540;2023-09-12T03:48:17;101142.69;;;22.95
13304;BMP280;6720;51.958;4.540;2023-09-12T03:50:43;101144.38;;;22.96
13304;BMP280;6720;51.958;4.540;2023-09-12T03:53:10;101149.34;;;23.02
13304;BMP280;6720;51.958;4.540;2023-09-12T03:55:36;101141.97;;;23.05
13304;BMP280;6720;51.958;4.540;2023-09-12T03:58:01;101148.94;;;23.08
13304;BMP280;6720;51.958;4.540;2023-09-12T04:00:27;101143.59;;;23.08
13304;BMP280;6720;51.958;4.540;2023-09-12T04:02:52;101147.06;;;23.10
13304;BMP280;6720;51.958;4.540;2023-09-12T04:05:18;101137.88;;;23.14
13304;BMP280;6720;51.958;4.540;2023-09-12T04:07:43;101145.13;;;23.12
13304;BMP280;6720;51.958;4.540;2023-09-12T04:10:09;101144.94;;;23.15
13304;BMP280;6720;51.958;4.540;2023-09-12T04:12:34;101146.94;;;23.11
13304;BMP280;6720;51.958;4.540;2023-09-12T04:14:59;101154.47;;;23.05
13304;BMP280;6720;51.958;4.540;2023-09-12T04:17:25;101141.47;;;23.13
13304;BMP280;6720;51.958;4.540;2023-09-12T04:19:50;101144.75;;;23.18
13304;BMP280;6720;51.958;4.540;2023-09-12T04:22:16;101152.47;;;23.08
13304;BMP280;6720;51.958;4.540;2023-09-12T04:24:41;101151.78;;;23.19
13304;BMP280;6720;51.958;4.540;2023-09-12T04:27:07;101152.66;;;23.19
13304;BMP280;6720;51.958;4.540;2023-09-12T04:29:35;101145.31;;;23.23
13304;BMP280;6720;51.958;4.540;2023-09-12T04:32:04;101150.09;;;23.18
13304;BMP280;6720;51.958;4.540;2023-09-12T04:34:30;101144.47;;;23.22
13304;BMP280;6720;51.958;4.540;2023-09-12T04:36:56;101143.69;;;23.06
13304;BMP280;6720;51.958;4.540;2023-09-12T04:39:21;101151.34;;;23.26
13304;BMP280;6720;51.958;4.540;2023-09-12T04:41:47;101151.72;;;23.34
13304;BMP280;6720;51.958;4.540;2023-09-12T04:44:12;101145.88;;;23.28
13304;BMP280;6720;51.958;4.540;2023-09-12T04:46:38;101147.97;;;23.37
13304;BMP280;6720;51.958;4.540;2023-09-12T04:49:03;101141.03;;;23.34
13304;BMP280;6720;51.958;4.540;2023-09-12T04:51:29;101141.31;;;23.30
13304;BMP280;6720;51.958;4.540;2023-09-12T04:53:54;101141.84;;;23.35
13304;BMP280;6720;51.958;4.540;2023-09-12T04:56:20;101140.41;;;23.43
13304;BMP280;6720;51.958;4.540;2023-09-12T04:58:46;101142.13;;;23.44
13304;BMP280;6720;51.958;4.540;2023-09-12T05:01:11;101142.13;;;23.44
13304;BMP280;6720;51.958;4.540;2023-09-12T05:03:37;101138.09;;;23.51
13304;BMP280;6720;51.958;4.540;2023-09-12T05:06:02;101143.19;;;23.42
13304;BMP280;6720;51.958;4.540;2023-09-12T05:08:29;101143.88;;;23.58
13304;BMP280;6720;51.958;4.540;2023-09-12T05:10:54;101147.53;;;23.57
13304;BMP280;6720;51.958;4.540;2023-09-12T05:13:20;101152.31;;;23.52
13304;BMP280;6720;51.958;4.540;2023-09-12T05:15:46;101149.22;;;23.58
13304;BMP280;6720;51.958;4.540;2023-09-12T05:18:12;101148.84;;;23.64
13304;BMP280;6720;51.958;4.540;2023-09-12T05:20:37;101151.56;;;24.03
13304;BMP280;6720;51.958;4.540;2023-09-12T05:23:03;101151.28;;;23.81
13304;BMP280;6720;51.958;4.540;2023-09-12T05:25:28;101155.06;;;23.77
13304;BMP280;6720;51.958;4.540;2023-09-12T05:27:55;101149.97;;;23.74
13304;BMP280;6720;51.958;4.540;2023-09-12T05:30:20;101143.97;;;23.83
13304;BMP280;6720;51.958;4.540;2023-09-12T05:32:46;101147.31;;;23.86
13304;BMP280;6720;51.958;4.540;2023-09-12T05:35:11;101152.78;;;23.85
13304;BMP280;6720;51.958;4.540;2023-09-12T05:37:37;101150.09;;;23.85
13304;BMP280;6720;51.958;4.540;2023-09-12T05:40:02;101154.09;;;23.92
13304;BMP280;6720;51.958;4.540;2023-09-12T05:42:28;101147.09;;;23.89
13304;BMP280;6720;51.958;4.540;2023-09-12T05:44:54;101148.63;;;23.93
13304;BMP280;6720;51.958;4.540;2023-09-12T05:47:20;101150.09;;;23.85
13304;BMP280;6720;51.958;4.540;2023-09-12T05:49:45;101159.91;;;23.98
13304;BMP280;6720;51.958;4.540;2023-09-12T05:52:11;101157.13;;;24.00
13304;BMP280;6720;51.958;4.540;2023-09-12T05:54:37;101156.06;;;24.02
13304;BMP280;6720;51.958;4.540;2023-09-12T05:57:03;101158.22;;;24.10
13304;BMP280;6720;51.958;4.540;2023-09-12T05:59:28;101163.56;;;24.10
13304;BMP280;6720;51.958;4.540;2023-09-12T06:01:54;101162.81;;;24.08
13304;BMP280;6720;51.958;4.540;2023-09-12T06:04:20;101166.81;;;24.15
13304;BMP280;6720;51.958;4.540;2023-09-12T06:06:46;101163.91;;;24.30
13304;BMP280;6720;51.958;4.540;2023-09-12T06:09:12;101164.03;;;24.29
13304;BMP280;6720;51.958;4.540;2023-09-12T06:11:37;101167.56;;;24.29
13304;BMP280;6720;51.958;4.540;2023-09-12T06:14:03;101161.44;;;24.27
13304;BMP280;6720;51.958;4.540;2023-09-12T06:16:28;101162.97;;;24.19
13304;BMP280;6720;51.958;4.540;2023-09-12T06:18:54;101161.84;;;24.09
13304;BMP280;6720;51.958;4.540;2023-09-12T06:21:20;101163.81;;;24.32
13304;BMP280;6720;51.958;4.540;2023-09-12T06:24:10;101163.81;;;24.32
13304;BMP280;6720;51.958;4.540;2023-09-12T06:26:36;101171.94;;;24.30
13304;BMP280;6720;51.958;4.540;2023-09-12T06:29:02;101175.50;;;24.31
13304;BMP280;6720;51.958;4.540;2023-09-12T06:31:28;101183.31;;;24.34
13304;BMP280;6720;51.958;4.540;2023-09-12T06:33:53;101177.72;;;24.37
13304;BMP280;6720;51.958;4.540;2023-09-12T06:36:18;101183.31;;;24.46
13304;BMP280;6720;51.958;4.540;2023-09-12T06:38:44;101184.72;;;24.52
13304;BMP280;6720;51.958;4.540;2023-09-12T06:41:09;101183.78;;;24.53
13304;BMP280;6720;51.958;4.540;2023-09-12T06:43:34;101182.03;;;24.39
13304;BMP280;6720;51.958;4.540;2023-09-12T06:46:00;101181.09;;;24.53
13304;BMP280;6720;51.958;4.540;2023-09-12T06:48:25;101187.63;;;24.49
13304;BMP280;6720;51.958;4.540;2023-09-12T06:50:53;101184.41;;;24.56
13304;BMP280;6720;51.958;4.540;2023-09-12T06:53:19;101174.34;;;24.60
13304;BMP280;6720;51.958;4.540;2023-09-12T06:55:44;101182.94;;;24.65
13304;BMP280;6720;51.958;4.540;2023-09-12T06:58:09;101183.59;;;24.81
13304;BMP280;6720;51.958;4.540;2023-09-12T07:00:36;101189.81;;;24.69
13304;BMP280;6720;51.958;4.540;2023-09-12T07:03:01;101190.66;;;24.82
13304;BMP280;6720;51.958;4.540;2023-09-12T07:05:27;101187.44;;;24.77
13304;BMP280;6720;51.958;4.540;2023-09-12T07:07:52;101185.28;;;24.95
13304;BMP280;6720;51.958;4.540;2023-09-12T07:10:18;101187.13;;;24.94
13304;BMP280;6720;51.958;4.540;2023-09-12T07:12:46;101187.53;;;25.13
13304;BMP280;6720;51.958;4.540;2023-09-12T07:15:12;101191.59;;;24.68
13304;BMP280;6720;51.958;4.540;2023-09-12T07:17:38;101197.00;;;24.29
13304;BMP280;6720;51.958;4.540;2023-09-12T07:20:04;101187.84;;;24.58
13304;BMP280;6720;51.958;4.540;2023-09-12T07:22:30;101191.94;;;24.89
13304;BMP280;6720;51.958;4.540;2023-09-12T07:24:55;101196.03;;;24.70
13304;BMP280;6720;51.958;4.540;2023-09-12T07:27:20;101202.03;;;24.98
13304;BMP280;6720;51.958;4.540;2023-09-12T07:29:46;101200.28;;;24.97
13304;BMP280;6720;51.958;4.540;2023-09-12T07:32:11;101200.31;;;24.72
13304;BMP280;6720;51.958;4.540;2023-09-12T07:34:37;101203.72;;;24.99
13304;BMP280;6720;51.958;4.540;2023-09-12T07:37:03;101202.53;;;24.91
13304;BMP280;6720;51.958;4.540;2023-09-12T07:39:28;101206.97;;;24.79
13304;BMP280;6720;51.958;4.540;2023-09-12T07:41:54;101205.78;;;24.83
13304;BMP280;6720;51.958;4.540;2023-09-12T07:44:20;101209.94;;;24.87
13304;BMP280;6720;51.958;4.540;2023-09-12T07:46:46;101210.69;;;25.02
13304;BMP280;6720;51.958;4.540;2023-09-12T07:49:11;101210.78;;;25.13
13304;BMP280;6720;51.958;4.540;2023-09-12T07:51:37;101215.63;;;24.95
13304;BMP280;6720;51.958;4.540;2023-09-12T07:54:02;101210.56;;;25.03
13304;BMP280;6720;51.958;4.540;2023-09-12T07:56:28;101213.72;;;24.85
13304;BMP280;6720;51.958;4.540;2023-09-12T07:58:53;101210.38;;;24.81
13304;BMP280;6720;51.958;4.540;2023-09-12T08:01:19;101196.75;;;24.84
13304;BMP280;6720;51.958;4.540;2023-09-12T08:03:44;101212.41;;;24.78
13304;BMP280;6720;51.958;4.540;2023-09-12T08:06:10;101213.16;;;24.92
13304;BMP280;6720;51.958;4.540;2023-09-12T08:08:35;101215.53;;;24.97
13304;BMP280;6720;51.958;4.540;2023-09-12T08:11:01;101214.00;;;25.05
13304;BMP280;6720;51.958;4.540;2023-09-12T08:13:27;101223.66;;;24.95
13304;BMP280;6720;51.958;4.540;2023-09-12T08:15:54;101215.31;;;25.00
13304;BMP280;6720;51.958;4.540;2023-09-12T08:18:19;101219.69;;;25.13
13304;BMP280;6720;51.958;4.540;2023-09-12T08:20:44;101220.94;;;25.20
13304;BMP280;6720;51.958;4.540;2023-09-12T08:23:10;101224.06;;;25.14
13304;BMP280;6720;51.958;4.540;2023-09-12T08:25:36;101222.69;;;25.21
13304;BMP280;6720;51.958;4.540;2023-09-12T08:28:01;101227.38;;;25.05
13304;BMP280;6720;51.958;4.540;2023-09-12T08:30:27;101223.63;;;25.20
13304;BMP280;6720;51.958;4.540;2023-09-12T08:32:55;101228.69;;;25.37
13304;BMP280;6720;51.958;4.540;2023-09-12T08:35:21;101230.69;;;25.46
13304;BMP280;6720;51.958;4.540;2023-09-12T08:37:46;101224.09;;;25.63
13304;BMP280;6720;51.958;4.540;2023-09-12T08:40:13;101226.47;;;25.67
13304;BMP280;6720;51.958;4.540;2023-09-12T08:42:40;101215.78;;;25.78
13304;BMP280;6720;51.958;4.540;2023-09-12T08:45:11;101221.16;;;25.42
13304;BMP280;6720;51.958;4.540;2023-09-12T08:47:40;101217.53;;;25.67
13304;BMP280;6720;51.958;4.540;2023-09-12T08:50:08;101217.97;;;25.73
13304;BMP280;6720;51.958;4.540;2023-09-12T08:52:35;101218.16;;;25.83
13304;BMP280;6720;51.958;4.540;2023-09-12T08:55:00;101220.47;;;25.87
13304;BMP280;6720;51.958;4.540;2023-09-12T08:57:27;101214.84;;;25.43
13304;BMP280;6720;51.958;4.540;2023-09-12T08:59:52;101212.34;;;25.76
13304;BMP280;6720;51.958;4.540;2023-09-12T09:02:19;101216.59;;;25.91
13304;BMP280;6720;51.958;4.540;2023-09-12T09:04:46;101225.41;;;25.93
13304;BMP280;6720;51.958;4.540;2023-09-12T09:07:12;101226.47;;;25.67
13304;BMP280;6720;51.958;4.540;2023-09-12T09:09:38;101224.66;;;25.68
13304;BMP280;6720;51.958;4.540;2023-09-12T09:12:08;101226.84;;;25.74
13304;BMP280;6720;51.958;4.540;2023-09-12T09:14:34;101227.78;;;25.85
13304;BMP280;6720;51.958;4.540;2023-09-12T09:17:00;101227.53;;;26.01
13304;BMP280;6720;51.958;4.540;2023-09-12T09:19:40;101223.31;;;26.09
13304;BMP280;6720;51.958;4.540;2023-09-12T09:22:07;101234.25;;;26.06
13304;BMP280;6720;51.958;4.540;2023-09-12T09:24:33;101234.59;;;26.25
13304;BMP280;6720;51.958;4.540;2023-09-12T09:26:58;101237.16;;;26.03
13304;BMP280;6720;51.958;4.540;2023-09-12T09:29:27;101238.19;;;26.13
13304;BMP280;6720;51.958;4.540;2023-09-12T09:32:00;101233.91;;;26.34
13304;BMP280;6720;51.958;4.540;2023-09-12T09:34:30;101235.44;;;26.49
13304;BMP280;6720;51.958;4.540;2023-09-12T09:36:57;101241.47;;;26.64
13304;BMP280;6720;51.958;4.540;2023-09-12T09:39:27;101239.44;;;26.89
13304;BMP280;6720;51.958;4.540;2023-09-12T09:41:57;101241.56;;;27.19
13304;BMP280;6720;51.958;4.540;2023-09-12T09:44:23;101248.75;;;27.07
13304;BMP280;6720;51.958;4.540;2023-09-12T09:46:54;101252.66;;;27.03
13304;BMP280;6720;51.958;4.540;2023-09-12T09:49:20;101249.50;;;27.42
13304;BMP280;6720;51.958;4.540;2023-09-12T09:51:47;101243.31;;;27.42
13304;BMP280;6720;51.958;4.540;2023-09-12T09:54:13;101252.84;;;27.35
13304;BMP280;6720;51.958;4.540;2023-09-12T09:56:49;101248.69;;;27.42
13304;BMP280;6720;51.958;4.540;2023-09-12T09:59:16;101248.50;;;26.99
13304;BMP280;6720;51.958;4.540;2023-09-12T10:01:44;101241.22;;;27.34
13304;BMP280;6720;51.958;4.540;2023-09-12T10:04:10;101245.88;;;27.32
13304;BMP280;6720;51.958;4.540;2023-09-12T10:06:36;101243.06;;;27.45
13304;BMP280;6720;51.958;4.540;2023-09-12T10:09:06;101253.94;;;27.43
13304;BMP280;6720;51.958;4.540;2023-09-12T10:11:32;101248.78;;;27.51
13304;BMP280;6720;51.958;4.540;2023-09-12T10:14:00;101240.50;;;27.43
13304;BMP280;6720;51.958;4.540;2023-09-12T10:16:36;101234.84;;;27.46
13304;BMP280;6720;51.958;4.540;2023-09-12T10:19:22;101233.22;;;27.77
13304;BMP280;6720;51.958;4.540;2023-09-12T10:25:12;101239.38;;;27.46
13304;BMP280;6720;51.958;4.540;2023-09-12T10:27:38;101238.88;;;27.52
13304;BMP280;6720;51.958;4.540;2023-09-12T10:30:04;101236.16;;;27.85
13304;BMP280;6720;51.958;4.540;2023-09-12T10:32:32;101228.84;;;28.19
13304;BMP280;6720;51.958;4.540;2023-09-12T10:34:58;101231.31;;;28.63
13304;BMP280;6720;51.958;4.540;2023-09-12T10:37:26;101231.50;;;28.91
13304;BMP280;6720;51.958;4.540;2023-09-12T10:39:55;101227.84;;;29.13
13304;BMP280;6720;51.958;4.540;2023-09-12T10:42:21;101229.63;;;29.33
13304;BMP280;6720;51.958;4.540;2023-09-12T10:44:50;101230.41;;;28.94
13304;BMP280;6720;51.958;4.540;2023-09-12T10:47:17;101219.88;;;28.91
13304;BMP280;6720;51.958;4.540;2023-09-12T10:49:43;101220.84;;;28.90
13304;BMP280;6720;51.958;4.540;2023-09-12T10:52:09;101213.38;;;28.73
13304;BMP280;6720;51.958;4.540;2023-09-12T10:57:07;101211.06;;;28.68
13304;BMP280;6720;51.958;4.540;2023-09-12T10:59:33;101203.53;;;28.83
13304;BMP280;6720;51.958;4.540;2023-09-12T11:02:29;101209.94;;;28.71
13304;BMP280;6720;51.958;4.540;2023-09-12T11:04:56;101201.41;;;28.66
13304;BMP280;6720;51.958;4.540;2023-09-12T11:07:32;101207.78;;;29.06
13304;BMP280;6720;51.958;4.540;2023-09-12T11:12:52;101205.97;;;29.16
13304;BMP280;6720;51.958;4.540;2023-09-12T11:15:19;101209.38;;;29.48
13304;BMP280;6720;51.958;4.540;2023-09-12T11:17:46;101208.94;;;29.43
13304;BMP280;6720;51.958;4.540;2023-09-12T11:20:13;101210.88;;;29.71
13304;BMP280;6720;51.958;4.540;2023-09-12T11:22:47;101214.75;;;29.48
13304;BMP280;6720;51.958;4.540;2023-09-12T11:25:16;101215.00;;;29.75
13304;BMP280;6720;51.958;4.540;2023-09-12T11:32:47;101230.63;;;29.71
13304;BMP280;6720;51.958;4.540;2023-09-12T11:35:14;101228.34;;;29.37
13304;BMP280;6720;51.958;4.540;2023-09-12T11:37:48;101230.94;;;29.08
13304;BMP280;6720;51.958;4.540;2023-09-12T11:42:43;101212.53;;;29.23
13304;BMP280;6720;51.958;4.540;2023-09-12T11:45:09;101216.31;;;29.11
13304;BMP280;6720;51.958;4.540;2023-09-12T11:47:46;101212.53;;;29.23
13304;BMP280;6720;51.958;4.540;2023-09-12T11:50:32;101224.72;;;29.17
13304;BMP280;6720;51.958;4.540;2023-09-12T11:53:09;101222.53;;;29.02
13304;BMP280;6720;51.958;4.540;2023-09-12T11:55:47;101229.16;;;28.98
13304;BMP280;6720;51.958;4.540;2023-09-12T11:58:15;101218.44;;;29.07
13304;BMP280;6720;51.958;4.540;2023-09-12T12:01:02;101226.44;;;29.18
13304;BMP280;6720;51.958;4.540;2023-09-12T12:03:28;101227.06;;;28.81
13304;BMP280;6720;51.958;4.540;2023-09-12T12:05:54;101226.41;;;29.09
13304;BMP280;6720;51.958;4.540;2023-09-12T12:08:20;101230.81;;;29.10
13304;BMP280;6720;51.958;4.540;2023-09-12T12:10:50;101233.09;;;29.54
13304;BMP280;6720;51.958;4.540;2023-09-12T12:13:17;101231.22;;;29.45
13304;BMP280;6720;51.958;4.540;2023-09-12T12:15:42;101230.88;;;29.59
13304;BMP280;6720;51.958;4.540;2023-09-12T12:18:08;101225.66;;;29.37
13304;BMP280;6720;51.958;4.540;2023-09-12T12:20:33;101216.34;;;29.20
13304;BMP280;6720;51.958;4.540;2023-09-12T12:22:59;101210.66;;;29.14
13304;BMP280;6720;51.958;4.540;2023-09-12T12:25:25;101208.16;;;29.31
13304;BMP280;6720;51.958;4.540;2023-09-12T12:27:50;101209.47;;;29.37
13304;BMP280;6720;51.958;4.540;2023-09-12T12:30:17;101214.03;;;29.46
13304;BMP280;6720;51.958;4.540;2023-09-12T12:32:44;101213.25;;;29.25
13304;BMP280;6720;51.958;4.540;2023-09-12T12:35:22;101216.94;;;28.94
13304;BMP280;6720;51.958;4.540;2023-09-12T12:37:49;101219.88;;;29.11
13304;BMP280;6720;51.958;4.540;2023-09-12T12:40:15;101216.59;;;29.08
13304;BMP280;6720;51.958;4.540;2023-09-12T12:42:43;101218.09;;;29.01
13304;BMP280;6720;51.958;4.540;2023-09-12T12:45:20;101221.72;;;28.70
13304;BMP280;6720;51.958;4.540;2023-09-12T12:47:46;101209.50;;;28.66
13304;BMP280;6720;51.958;4.540;2023-09-12T12:50:11;101203.13;;;28.67
13304;BMP280;6720;51.958;4.540;2023-09-12T12:52:38;101205.38;;;28.62
13304;BMP280;6720;51.958;4.540;2023-09-12T12:55:05;101202.22;;;28.57
13304;BMP280;6720;51.958;4.540;2023-09-12T12:57:31;101195.47;;;28.31
13304;BMP280;6720;51.958;4.540;2023-09-12T12:59:58;101197.59;;;28.48
13304;BMP280;6720;51.958;4.540;2023-09-12T13:02:23;101199.97;;;28.62
13304;BMP280;6720;51.958;4.540;2023-09-12T13:04:49;101190.97;;;28.52
13304;BMP280;6720;51.958;4.540;2023-09-12T13:07:14;101198.47;;;28.69
13304;BMP280;6720;51.958;4.540;2023-09-12T13:09:40;101185.03;;;28.78
13304;BMP280;6720;51.958;4.540;2023-09-12T13:12:05;101189.53;;;28.98
13304;BMP280;6720;51.958;4.540;2023-09-12T13:14:31;101182.97;;;29.12
13304;BMP280;6720;51.958;4.540;2023-09-12T13:16:58;101190.41;;;29.29
13304;BMP280;6720;51.958;4.540;2023-09-12T13:19:25;101177.09;;;29.37
13304;BMP280;6720;51.958;4.540;2023-09-12T13:21:50;101177.94;;;29.28
13304;BMP280;6720;51.958;4.540;2023-09-12T13:24:15;101178.56;;;29.11
13304;BMP280;6720;51.958;4.540;2023-09-12T13:26:41;101179.28;;;29.13
13304;BMP280;6720;51.958;4.540;2023-09-12T13:29:06;101173.22;;;29.00
13304;BMP280;6720;51.958;4.540;2023-09-12T13:31:32;101168.66;;;28.91
13304;BMP280;6720;51.958;4.540;2023-09-12T13:33:57;101168.91;;;28.58
13304;BMP280;6720;51.958;4.540;2023-09-12T13:36:23;101170.75;;;28.26
13304;BMP280;6720;51.958;4.540;2023-09-12T13:38:51;101168.06;;;27.62
13304;BMP280;6720;51.958;4.540;2023-09-12T13:41:17;101174.00;;;27.88
13304;BMP280;6720;51.958;4.540;2023-09-12T13:43:43;101178.50;;;27.88
13304;BMP280;6720;51.958;4.540;2023-09-12T13:46:12;101170.75;;;27.62
13304;BMP280;6720;51.958;4.540;2023-09-12T13:48:38;101170.56;;;27.43
13304;BMP280;6720;51.958;4.540;2023-09-12T13:51:03;101169.09;;;27.39
13304;BMP280;6720;51.958;4.540;2023-09-12T13:53:28;101163.94;;;27.47
13304;BMP280;6720;51.958;4.540;2023-09-12T13:55:54;101170.78;;;27.51
13304;BMP280;6720;51.958;4.540;2023-09-12T13:58:22;101169.44;;;27.46
13304;BMP280;6720;51.958;4.540;2023-09-12T14:00:47;101163.81;;;27.49
13304;BMP280;6720;51.958;4.540;2023-09-12T14:03:13;101160.78;;;27.31
13304;BMP280;6720;51.958;4.540;2023-09-12T14:05:38;101167.47;;;27.37
13304;BMP280;6720;51.958;4.540;2023-09-12T14:08:04;101159.94;;;27.31
13304;BMP280;6720;51.958;4.540;2023-09-12T14:10:29;101174.09;;;27.33
13304;BMP280;6720;51.958;4.540;2023-09-12T14:12:55;101182.41;;;27.19
13304;BMP280;6720;51.958;4.540;2023-09-12T14:15:20;101185.22;;;26.95
13304;BMP280;6720;51.958;4.540;2023-09-12T14:17:45;101182.06;;;27.01
13304;BMP280;6720;51.958;4.540;2023-09-12T14:20:11;101186.19;;;26.94
13304;BMP280;6720;51.958;4.540;2023-09-12T14:22:41;101185.81;;;26.99
13304;BMP280;6720;51.958;4.540;2023-09-12T14:25:07;101182.66;;;26.94
13304;BMP280;6720;51.958;4.540;2023-09-12T14:27:33;101186.69;;;26.88